createdAt,value
2019-06-10T00:01:37.713Z,5.04
2019-06-10T00:06:44.479Z,4.69
2019-06-10T00:11:51.425Z,4.77
2019-06-10T00:16:59.516Z,6.31
2019-06-10T00:22:08.481Z,5.87
2019-06-10T00:27:17.721Z,5.12
2019-06-10T00:32:24.088Z,9.02
2019-06-10T00:37:31.517Z,7.22
2019-06-10T00:42:37.995Z,7.04
2019-06-10T00:47:44.903Z,4.33
2019-06-10T00:52:51.775Z,4.27
2019-06-10T00:58:01.077Z,4.20
2019-06-10T01:03:08.109Z,3.84
2019-06-10T01:08:15.747Z,4.44
2019-06-10T01:13:22.350Z,3.98
2019-06-10T01:18:35.588Z,4.71
2019-06-10T01:23:35.952Z,5.63
2019-06-10T01:28:42.415Z,4.23
2019-06-10T01:33:51.350Z,3.60
2019-06-10T01:38:57.900Z,3.60
2019-06-10T01:44:04.216Z,4.99
2019-06-10T01:49:12.022Z,4.11
2019-06-10T01:54:21.328Z,4.42
2019-06-10T01:59:27.952Z,3.79
2019-06-10T02:04:34.300Z,4.31
2019-06-10T02:09:41.151Z,3.76
2019-06-10T02:14:47.711Z,3.69
2019-06-10T02:19:54.263Z,3.94
2019-06-10T02:25:01.438Z,3.08
2019-06-10T02:30:14.798Z,4.12
2019-06-10T02:35:18.092Z,3.12
2019-06-10T02:40:28.233Z,4.42
2019-06-10T02:45:36.316Z,4.94
2019-06-10T02:50:36.440Z,4.22
2019-06-10T02:55:43.495Z,4.20
2019-06-10T03:00:54.307Z,3.41
2019-06-10T03:05:53.679Z,3.13
2019-06-10T03:11:03.847Z,3.27
2019-06-10T03:16:13.011Z,3.58
2019-06-10T03:21:19.975Z,3.85
2019-06-10T03:26:27.587Z,4.89
2019-06-10T03:31:41.421Z,2.98
2019-06-10T03:36:42.917Z,4.78
2019-06-10T03:41:50.112Z,4.00
2019-06-10T03:46:56.406Z,4.51
2019-06-10T03:52:03.388Z,4.11
2019-06-10T03:57:12.060Z,3.87
2019-06-10T04:02:19.406Z,4.15
2019-06-10T04:07:29.771Z,3.55
2019-06-10T04:12:29.046Z,3.88
2019-06-10T04:17:36.332Z,3.69
2019-06-10T04:22:44.458Z,3.94
2019-06-10T04:27:52.434Z,4.86
2019-06-10T04:33:02.325Z,4.51
2019-06-10T04:38:09.020Z,4.35
2019-06-10T04:43:15.445Z,3.99
2019-06-10T04:48:23.530Z,4.44
2019-06-10T04:53:23.696Z,4.52
2019-06-10T04:58:33.460Z,4.71
2019-06-10T05:03:39.914Z,4.68
2019-06-10T05:08:46.499Z,4.88
2019-06-10T05:13:53.394Z,5.06
2019-06-10T05:18:59.743Z,5.07
2019-06-10T05:24:06.244Z,4.72
2019-06-10T05:29:12.754Z,5.77
2019-06-10T05:34:20.408Z,6.47
2019-06-10T05:39:27.608Z,5.95
2019-06-10T05:44:35.471Z,4.49
2019-06-10T05:49:43.054Z,4.15
2019-06-10T05:54:51.998Z,4.53
2019-06-10T05:59:58.608Z,6.34
2019-06-10T06:05:04.824Z,5.09
2019-06-10T06:10:13.036Z,5.20
2019-06-10T06:15:21.978Z,4.37
2019-06-10T06:20:31.978Z,5.82
2019-06-10T06:25:36.011Z,4.67
2019-06-10T06:30:36.129Z,6.07
2019-06-10T06:35:46.362Z,5.76
2019-06-10T06:40:53.833Z,5.19
2019-06-10T06:46:02.448Z,5.65
2019-06-10T06:51:09.101Z,4.49
2019-06-10T06:56:15.326Z,5.49
2019-06-10T07:01:25.761Z,5.38
2019-06-10T07:06:23.096Z,5.09
2019-06-10T07:11:30.579Z,5.43
2019-06-10T07:16:34.476Z,6.13
2019-06-10T07:21:40.462Z,4.48
2019-06-10T07:26:45.294Z,6.14
2019-06-10T07:31:50.156Z,5.30
2019-06-10T07:36:49.384Z,4.06
2019-06-10T07:41:55.599Z,6.96
2019-06-10T07:47:02.668Z,5.74
2019-06-10T07:52:15.860Z,5.69
2019-06-10T07:57:16.387Z,5.89
2019-06-10T08:02:35.636Z,5.55
2019-06-10T08:07:33.412Z,5.22
2019-06-10T08:12:44.171Z,6.31
2019-06-10T08:17:44.172Z,5.22
2019-06-10T08:22:57.516Z,5.91
2019-06-10T08:27:54.367Z,5.70
2019-06-10T08:33:03.264Z,7.09
2019-06-10T08:38:12.268Z,6.19
2019-06-10T08:43:18.751Z,12.52
2019-06-10T08:48:25.228Z,10.64
2019-06-10T08:53:33.034Z,6.23
2019-06-10T08:58:40.883Z,11.54
2019-06-10T09:03:49.443Z,13.38
2019-06-10T09:08:57.643Z,11.52
2019-06-10T09:14:04.456Z,12.11
2019-06-10T09:19:13.203Z,15.19
2019-06-10T09:24:22.158Z,9.66
2019-06-10T09:29:28.959Z,6.94
2019-06-10T09:34:35.293Z,5.57
2019-06-10T09:39:47.215Z,8.55
2019-06-10T09:44:50.301Z,6.23
2019-06-10T09:49:57.569Z,5.49
2019-06-10T09:55:04.015Z,6.65
2019-06-10T10:00:12.451Z,6.72
2019-06-10T10:05:19.053Z,6.88
2019-06-10T10:10:25.589Z,4.76
2019-06-10T10:15:34.572Z,5.62
2019-06-10T10:20:44.850Z,6.68
2019-06-10T10:25:45.019Z,3.99
2019-06-10T10:30:45.472Z,5.85
2019-06-10T10:35:46.405Z,4.68
2019-06-10T10:40:58.587Z,4.79
2019-06-10T10:46:00.148Z,15.17
2019-06-10T10:51:03.562Z,6.42
2019-06-10T10:56:12.897Z,5.94
2019-06-10T11:01:19.702Z,5.24
2019-06-10T11:06:26.605Z,6.30
2019-06-10T11:11:33.367Z,5.57
2019-06-10T11:16:40.234Z,10.01
2019-06-10T11:21:47.440Z,6.29
2019-06-10T11:26:56.451Z,5.01
2019-06-10T11:32:03.320Z,4.63
2019-06-10T11:37:12.327Z,4.05
2019-06-10T11:42:19.178Z,4.74
2019-06-10T11:47:25.806Z,4.82
2019-06-10T11:52:33.517Z,5.13
2019-06-10T11:57:42.312Z,5.44
2019-06-10T12:02:50.935Z,6.48
2019-06-10T12:07:51.843Z,4.59
2019-06-10T12:12:54.893Z,5.69
2019-06-10T12:18:00.803Z,5.08
2019-06-10T12:23:04.340Z,5.49
2019-06-10T12:28:04.513Z,5.61
2019-06-10T12:33:05.569Z,6.20
2019-06-10T12:38:13.840Z,6.08
2019-06-10T12:43:22.951Z,5.38
2019-06-10T12:48:33.201Z,5.41
2019-06-10T12:53:32.591Z,5.36
2019-06-10T12:58:39.451Z,6.11
2019-06-10T13:03:45.756Z,6.11
2019-06-10T13:08:53.132Z,6.25
2019-06-10T13:14:00.492Z,5.35
2019-06-10T13:19:09.193Z,6.05
2019-06-10T13:24:15.641Z,5.80
2019-06-10T13:29:28.189Z,11.79
2019-06-10T13:34:24.622Z,10.78
2019-06-10T13:39:32.555Z,5.81
2019-06-10T13:44:42.764Z,5.95
2019-06-10T13:49:39.312Z,5.15
2019-06-10T13:54:46.683Z,5.73
2019-06-10T13:59:53.447Z,6.38
2019-06-10T14:05:02.609Z,5.80
2019-06-10T14:10:07.696Z,5.15
2019-06-10T14:15:09.816Z,7.77
2019-06-10T14:20:17.957Z,7.48
2019-06-10T14:25:24.564Z,6.79
2019-06-10T14:30:32.330Z,6.20
2019-06-10T14:35:39.028Z,6.03
2019-06-10T14:40:45.612Z,6.33
2019-06-10T14:45:53.389Z,7.52
2019-06-10T14:51:03.058Z,7.37
2019-06-10T14:56:13.185Z,7.79
2019-06-10T15:01:24.163Z,8.25
2019-06-10T15:06:22.699Z,8.44
2019-06-10T15:11:23.410Z,7.66
2019-06-10T15:16:23.617Z,7.66
2019-06-10T15:21:32.370Z,6.99
2019-06-10T15:26:39.273Z,6.25
2019-06-10T15:31:46.773Z,6.30
2019-06-10T15:36:53.593Z,5.36
2019-06-10T15:42:02.836Z,6.92
2019-06-10T15:47:10.731Z,6.42
2019-06-10T15:52:13.260Z,8.23
2019-06-10T15:57:26.489Z,8.12
2019-06-10T16:02:20.684Z,10.05
2019-06-10T16:07:28.319Z,8.92
2019-06-10T16:12:34.672Z,7.93
2019-06-10T16:17:43.078Z,8.09
2019-06-10T16:22:52.163Z,7.33
2019-06-10T16:27:59.093Z,10.37
2019-06-10T16:33:06.193Z,6.74
2019-06-10T16:38:12.779Z,7.89
2019-06-10T16:43:19.652Z,8.12
2019-06-10T16:48:26.152Z,7.20
2019-06-10T16:53:35.293Z,7.25
2019-06-10T16:58:43.235Z,7.30
2019-06-10T17:03:49.665Z,6.96
2019-06-10T17:08:56.105Z,8.23
2019-06-10T17:14:03.383Z,8.28
2019-06-10T17:19:09.624Z,6.08
2019-06-10T17:24:15.956Z,7.16
2019-06-10T17:29:25.220Z,8.29
2019-06-10T17:34:24.615Z,7.29
2019-06-10T17:39:23.786Z,7.03
2019-06-10T17:44:32.528Z,8.25
2019-06-10T17:49:39.088Z,9.80
2019-06-10T17:54:45.323Z,7.75
2019-06-10T17:59:52.422Z,9.38
2019-06-10T18:04:59.029Z,8.72
2019-06-10T18:10:05.483Z,7.37
2019-06-10T18:15:12.643Z,7.31
2019-06-10T18:20:19.220Z,6.86
2019-06-10T18:25:26.622Z,6.40
2019-06-10T18:30:36.360Z,8.14
2019-06-10T18:35:35.923Z,8.77
2019-06-10T18:40:44.853Z,9.24
2019-06-10T18:45:53.195Z,9.85
2019-06-10T18:51:00.086Z,11.86
2019-06-10T18:56:06.417Z,10.01
2019-06-10T19:01:12.739Z,10.17
2019-06-10T19:06:19.769Z,10.31
2019-06-10T19:11:26.192Z,13.64
2019-06-10T19:16:34.210Z,9.66
2019-06-10T19:21:43.893Z,14.13
2019-06-10T19:26:52.735Z,12.60
2019-06-10T19:31:59.178Z,10.95
2019-06-10T19:37:05.712Z,11.85
2019-06-10T19:42:13.075Z,10.75
2019-06-10T19:47:20.417Z,10.83
2019-06-10T19:52:26.689Z,13.04
2019-06-10T19:57:34.299Z,9.19
2019-06-10T20:02:46.530Z,10.58
2019-06-10T20:07:48.487Z,11.13
2019-06-10T20:12:46.815Z,10.90
2019-06-10T20:17:53.079Z,10.52
2019-06-10T20:23:02.878Z,10.66
2019-06-10T20:27:59.610Z,11.25
2019-06-10T20:33:05.807Z,10.59
2019-06-10T20:38:13.143Z,11.48
2019-06-10T20:43:19.494Z,13.00
2019-06-10T20:48:26.026Z,11.97
2019-06-10T20:53:33.740Z,12.01
2019-06-10T20:58:40.786Z,11.99
2019-06-10T21:03:49.921Z,11.84
2019-06-10T21:08:57.620Z,12.04
2019-06-10T21:14:04.248Z,12.87
2019-06-10T21:19:10.402Z,12.94
2019-06-10T21:24:19.282Z,13.97
2019-06-10T21:29:26.575Z,10.45
2019-06-10T21:34:32.978Z,12.00
2019-06-10T21:39:59.315Z,10.86
2019-06-10T21:45:15.017Z,11.49
2019-06-10T21:49:58.618Z,13.48
2019-06-10T21:54:59.921Z,12.61
2019-06-10T21:59:56.988Z,14.15
2019-06-10T22:05:06.464Z,15.66
2019-06-10T22:10:12.861Z,12.39
2019-06-10T22:15:19.204Z,13.42
2019-06-10T22:20:25.443Z,11.82
2019-06-10T22:25:32.866Z,14.23
2019-06-10T22:30:39.719Z,14.48
2019-06-10T22:35:45.997Z,14.36
2019-06-10T22:40:53.800Z,13.79
2019-06-10T22:46:04.013Z,13.88
2019-06-10T22:51:12.308Z,14.92
2019-06-10T22:56:18.656Z,13.40
2019-06-10T23:01:33.817Z,13.21
2019-06-10T23:06:33.757Z,15.90
2019-06-10T23:11:43.709Z,14.81
2019-06-10T23:16:51.453Z,17.98
2019-06-10T23:22:02.900Z,17.08
2019-06-10T23:27:09.756Z,16.73
2019-06-10T23:32:16.030Z,16.15
2019-06-10T23:37:22.974Z,15.36
2019-06-10T23:42:29.330Z,14.74
2019-06-10T23:47:35.716Z,14.12
2019-06-10T23:52:42.077Z,13.24
2019-06-10T23:57:48.456Z,14.39
